createdAt,value
2023-03-05T00:01:29.395Z,85.21
2023-03-05T00:03:57.722Z,85.13
2023-03-05T00:06:28.236Z,85.49
2023-03-05T00:08:58.380Z,85.54
2023-03-05T00:11:30.236Z,85.42
2023-03-05T00:13:58.497Z,85.27
2023-03-05T00:16:28.504Z,85.47
2023-03-05T00:18:57.504Z,85.43
2023-03-05T00:21:53.752Z,85.49
2023-03-05T00:24:20.838Z,85.45
2023-03-05T00:26:48.182Z,85.72
2023-03-05T00:29:30.800Z,85.92
2023-03-05T00:31:58.770Z,86.14
2023-03-05T00:34:28.076Z,86.34
2023-03-05T00:36:55.174Z,86.54
2023-03-05T00:39:22.722Z,86.35
2023-03-05T00:41:50.753Z,86.17
2023-03-05T00:44:17.905Z,86.36
2023-03-05T00:46:45.016Z,86.52
2023-03-05T00:49:12.065Z,86.54
2023-03-05T00:51:39.321Z,86.61
2023-03-05T00:54:06.638Z,86.51
2023-03-05T00:56:34.179Z,86.57
2023-03-05T00:59:01.240Z,86.69
2023-03-05T01:01:29.282Z,86.66
2023-03-05T01:03:57.574Z,86.56
2023-03-05T01:06:24.612Z,86.48
2023-03-05T01:08:51.641Z,86.88
2023-03-05T01:11:18.938Z,86.62
2023-03-05T01:13:46.003Z,86.50
2023-03-05T01:16:13.111Z,86.06
2023-03-05T01:18:41.042Z,86.07
2023-03-05T01:21:08.546Z,85.92
2023-03-05T01:23:37.552Z,85.77
2023-03-05T01:26:05.744Z,85.20
2023-03-05T01:28:33.253Z,85.12
2023-03-05T01:31:00.283Z,84.78
2023-03-05T01:33:27.337Z,84.81
2023-03-05T01:35:54.429Z,84.63
2023-03-05T01:38:21.542Z,85.08
2023-03-05T01:40:48.575Z,85.13
2023-03-05T01:43:28.385Z,85.04
2023-03-05T01:46:13.494Z,85.23
2023-03-05T01:48:44.934Z,85.50
2023-03-05T01:51:12.284Z,85.85
2023-03-05T01:53:40.122Z,85.97
2023-03-05T01:56:07.308Z,86.20
2023-03-05T01:58:34.349Z,85.88
2023-03-05T02:01:02.696Z,85.11
2023-03-05T02:03:29.867Z,84.01
2023-03-05T02:05:56.959Z,83.80
2023-03-05T02:08:25.035Z,83.63
2023-03-05T02:10:56.442Z,83.72
2023-03-05T02:13:35.890Z,83.75
2023-03-05T02:16:03.328Z,83.83
2023-03-05T02:18:30.830Z,84.14
2023-03-05T02:20:57.741Z,84.16
2023-03-05T02:23:29.140Z,84.43
2023-03-05T02:25:56.727Z,83.95
2023-03-05T02:28:31.320Z,83.29
2023-03-05T02:30:58.583Z,83.26
2023-03-05T02:33:25.906Z,83.92
2023-03-05T02:35:53.229Z,84.95
2023-03-05T02:38:21.763Z,85.57
2023-03-05T02:40:48.769Z,86.53
2023-03-05T02:43:15.848Z,87.75
2023-03-05T02:45:42.927Z,88.86
2023-03-05T02:48:10.005Z,90.11
2023-03-05T02:50:39.812Z,90.81
2023-03-05T02:53:07.039Z,91.21
2023-03-05T02:55:34.540Z,92.06
2023-03-05T02:58:01.577Z,92.54
2023-03-05T03:00:28.876Z,92.52
2023-03-05T03:02:56.277Z,92.51
2023-03-05T03:05:23.287Z,92.18
2023-03-05T03:07:51.177Z,92.66
2023-03-05T03:10:18.576Z,92.65
2023-03-05T03:12:48.658Z,92.14
2023-03-05T03:15:17.358Z,92.16
2023-03-05T03:17:44.615Z,92.06
2023-03-05T03:20:16.654Z,91.98
2023-03-05T03:22:45.916Z,92.10
2023-03-05T03:25:19.116Z,91.94
2023-03-05T03:27:46.192Z,92.03
2023-03-05T03:30:14.037Z,91.32
2023-03-05T03:32:41.398Z,91.00
2023-03-05T03:35:09.262Z,90.60
2023-03-05T03:37:36.474Z,90.60
2023-03-05T03:40:05.805Z,90.53
2023-03-05T03:42:33.371Z,90.41
2023-03-05T03:45:02.388Z,90.40
2023-03-05T03:47:30.932Z,90.48
2023-03-05T03:49:59.040Z,90.47
2023-03-05T03:52:26.677Z,90.34
2023-03-05T03:54:55.761Z,90.33
2023-03-05T03:57:22.958Z,90.02
2023-03-05T03:59:51.104Z,89.98
2023-03-05T04:02:18.578Z,89.84
2023-03-05T04:04:45.793Z,90.01
2023-03-05T04:07:13.117Z,90.57
2023-03-05T04:09:40.108Z,90.49
2023-03-05T04:12:07.704Z,90.46
2023-03-05T04:14:35.194Z,90.98
2023-03-05T04:17:02.293Z,91.23
2023-03-05T04:19:30.753Z,91.46
2023-03-05T04:21:59.417Z,92.38
2023-03-05T04:24:26.753Z,92.64
2023-03-05T04:26:54.096Z,92.80
2023-03-05T04:29:21.195Z,92.93
2023-03-05T04:31:48.176Z,93.10
2023-03-05T04:34:15.408Z,93.17
2023-03-05T04:36:42.388Z,93.85
2023-03-05T04:39:09.429Z,93.48
2023-03-05T04:41:36.714Z,93.56
2023-03-05T04:44:04.140Z,93.60
2023-03-05T04:46:31.210Z,93.54
2023-03-05T04:48:59.139Z,93.95
2023-03-05T04:51:26.331Z,93.91
2023-03-05T04:53:53.294Z,94.95
2023-03-05T04:56:20.981Z,95.96
2023-03-05T04:58:48.145Z,95.89
2023-03-05T05:01:15.335Z,96.22
2023-03-05T05:03:42.330Z,97.32
2023-03-05T05:06:09.354Z,97.55
2023-03-05T05:08:37.139Z,97.77
2023-03-05T05:11:07.145Z,97.65
2023-03-05T05:13:35.178Z,97.33
2023-03-05T05:16:02.496Z,97.35
2023-03-05T05:18:29.545Z,97.50
2023-03-05T05:20:56.607Z,97.25
2023-03-05T05:23:23.735Z,97.54
2023-03-05T05:26:02.282Z,97.91
2023-03-05T05:28:29.811Z,98.42
2023-03-05T05:30:57.277Z,98.21
2023-03-05T05:33:24.529Z,98.69
2023-03-05T05:35:52.189Z,98.76
2023-03-05T05:38:20.027Z,98.83
2023-03-05T05:40:46.982Z,99.26
2023-03-05T05:43:14.444Z,99.60
2023-03-05T05:45:41.553Z,99.28
2023-03-05T05:48:08.711Z,99.33
2023-03-05T05:50:35.742Z,99.39
2023-03-05T05:53:02.847Z,99.04
2023-03-05T05:55:29.816Z,98.44
2023-03-05T05:57:56.788Z,98.07
2023-03-05T06:00:24.137Z,97.88
2023-03-05T06:02:51.253Z,97.88
2023-03-05T06:05:18.280Z,97.93
2023-03-05T06:07:45.488Z,98.00
2023-03-05T06:10:12.733Z,97.89
2023-03-05T06:12:40.131Z,97.65
2023-03-05T06:15:08.108Z,97.81
2023-03-05T06:17:35.310Z,97.54
2023-03-05T06:20:02.436Z,97.21
2023-03-05T06:22:29.587Z,97.11
2023-03-05T06:24:56.551Z,96.87
2023-03-05T06:27:23.497Z,97.00
2023-03-05T06:29:54.408Z,96.75
2023-03-05T06:32:21.690Z,96.71
2023-03-05T06:34:49.508Z,96.70
2023-03-05T06:37:16.966Z,96.64
2023-03-05T06:39:44.292Z,96.43
2023-03-05T06:42:11.382Z,96.33
2023-03-05T06:44:41.986Z,96.32
2023-03-05T06:47:10.607Z,96.40
2023-03-05T06:49:39.329Z,96.62
2023-03-05T06:52:10.288Z,97.47
2023-03-05T06:54:37.371Z,97.00
2023-03-05T06:57:04.848Z,97.18
2023-03-05T06:59:31.904Z,97.30
2023-03-05T07:01:59.002Z,97.12
2023-03-05T07:04:26.290Z,96.69
2023-03-05T07:06:53.660Z,96.44
2023-03-05T07:09:20.637Z,96.29
2023-03-05T07:11:47.698Z,95.90
2023-03-05T07:14:14.880Z,95.68
2023-03-05T07:16:42.215Z,95.64
2023-03-05T07:19:11.087Z,95.41
2023-03-05T07:21:39.905Z,94.88
2023-03-05T07:24:08.744Z,94.60
2023-03-05T07:26:36.347Z,94.52
2023-03-05T07:29:03.989Z,93.89
2023-03-05T07:31:32.219Z,93.71
2023-03-05T07:34:02.067Z,93.26
2023-03-05T07:36:30.813Z,92.53
2023-03-05T07:38:58.131Z,92.23
2023-03-05T07:41:25.233Z,91.78
2023-03-05T07:43:54.730Z,91.37
2023-03-05T07:46:28.906Z,90.81
2023-03-05T07:48:56.632Z,90.52
2023-03-05T07:51:25.802Z,90.19
2023-03-05T07:53:55.324Z,89.61
2023-03-05T07:56:35.590Z,88.93
2023-03-05T07:59:07.321Z,88.43
2023-03-05T08:01:35.396Z,88.03
2023-03-05T08:04:05.001Z,87.58
2023-03-05T08:06:32.546Z,87.24
2023-03-05T08:09:00.642Z,86.78
2023-03-05T08:11:28.754Z,86.23
2023-03-05T08:13:58.118Z,85.72
2023-03-05T08:16:26.420Z,85.41
2023-03-05T08:18:58.191Z,85.00
2023-03-05T08:21:38.053Z,85.02
2023-03-05T08:24:08.060Z,84.63
2023-03-05T08:26:38.628Z,84.24
2023-03-05T08:29:09.758Z,83.74
2023-03-05T08:31:37.560Z,83.82
2023-03-05T08:34:05.769Z,83.79
2023-03-05T08:36:32.897Z,84.03
2023-03-05T08:39:00.483Z,83.26
2023-03-05T08:41:27.920Z,83.25
2023-03-05T08:43:55.145Z,82.49
2023-03-05T08:46:22.277Z,82.61
2023-03-05T08:48:49.348Z,82.32
2023-03-05T08:51:20.313Z,82.44
2023-03-05T08:53:48.041Z,81.98
2023-03-05T08:56:15.988Z,81.61
2023-03-05T08:58:43.383Z,81.35
2023-03-05T09:01:11.155Z,81.45
2023-03-05T09:03:38.620Z,80.97
2023-03-05T09:06:09.626Z,80.60
2023-03-05T09:08:36.798Z,79.86
2023-03-05T09:11:07.367Z,79.28
2023-03-05T09:13:35.129Z,79.25
2023-03-05T09:16:07.196Z,78.30
2023-03-05T09:18:36.823Z,77.98
2023-03-05T09:21:09.595Z,77.69
2023-03-05T09:23:36.688Z,76.41
2023-03-05T09:26:07.975Z,75.75
2023-03-05T09:28:35.030Z,75.88
2023-03-05T09:31:04.856Z,75.97
2023-03-05T09:33:33.131Z,75.88
2023-03-05T09:36:01.056Z,75.53
2023-03-05T09:38:29.236Z,75.34
2023-03-05T09:41:19.385Z,74.77
2023-03-05T09:44:17.184Z,74.44
2023-03-05T09:46:52.011Z,74.37
2023-03-05T09:49:37.477Z,74.32
2023-03-05T09:52:24.006Z,73.62
2023-03-05T09:54:57.372Z,73.63
2023-03-05T09:57:41.113Z,73.16
2023-03-05T10:00:50.935Z,73.28
2023-03-05T10:03:57.595Z,73.49
2023-03-05T10:06:51.085Z,73.21
2023-03-05T10:09:57.386Z,73.28
2023-03-05T10:12:42.671Z,72.75
2023-03-05T10:15:21.488Z,72.31
2023-03-05T10:18:27.110Z,72.15
2023-03-05T10:21:30.735Z,72.18
2023-03-05T10:24:10.353Z,71.60
2023-03-05T10:27:06.203Z,71.26
2023-03-05T10:29:49.506Z,71.11
2023-03-05T10:32:50.546Z,70.51
2023-03-05T10:35:42.849Z,70.53
2023-03-05T10:38:48.189Z,70.39
2023-03-05T10:41:40.242Z,70.11
2023-03-05T10:44:27.313Z,70.02
2023-03-05T10:46:58.984Z,69.80
2023-03-05T10:49:34.044Z,69.70
2023-03-05T10:52:32.776Z,69.63
2023-03-05T10:55:00.036Z,69.30
2023-03-05T10:57:32.237Z,68.89
2023-03-05T11:00:26.309Z,68.13
2023-03-05T11:03:06.759Z,67.63
2023-03-05T11:05:52.532Z,67.61
2023-03-05T11:08:36.820Z,66.90
2023-03-05T11:11:17.881Z,66.52
2023-03-05T11:14:03.870Z,66.09
2023-03-05T11:16:34.565Z,65.78
2023-03-05T11:19:25.092Z,65.66
2023-03-05T11:22:23.084Z,65.30
2023-03-05T11:25:18.345Z,65.17
2023-03-05T11:27:56.147Z,65.14
2023-03-05T11:30:29.364Z,65.38
2023-03-05T11:33:22.641Z,65.82
2023-03-05T11:35:52.542Z,65.44
2023-03-05T11:38:24.585Z,65.39
2023-03-05T11:40:54.550Z,65.07
2023-03-05T11:46:24.815Z,65.24
2023-03-05T11:48:55.073Z,64.73
2023-03-05T11:51:39.375Z,65.25
2023-03-05T11:54:14.489Z,65.32
2023-03-05T11:56:44.613Z,64.09
2023-03-05T11:59:20.950Z,63.91
2023-03-05T12:01:55.002Z,64.02
2023-03-05T12:04:23.991Z,64.26
2023-03-05T12:07:00.908Z,64.50
2023-03-05T12:09:44.208Z,64.16
2023-03-05T12:12:28.764Z,64.05
2023-03-05T12:15:35.077Z,63.64
2023-03-05T12:18:42.371Z,63.50
2023-03-05T12:21:41.271Z,62.88
2023-03-05T12:24:25.408Z,62.99
2023-03-05T12:26:53.518Z,63.33
2023-03-05T12:29:51.072Z,63.62
2023-03-05T12:32:35.157Z,63.73
2023-03-05T12:35:15.742Z,64.05
2023-03-05T12:37:45.713Z,63.85
2023-03-05T12:40:30.694Z,64.76
2023-03-05T12:43:05.778Z,64.24
2023-03-05T12:45:52.932Z,63.84
2023-03-05T12:48:19.909Z,63.60
2023-03-05T12:50:52.900Z,63.38
2023-03-05T12:53:21.369Z,62.99
2023-03-05T12:56:20.121Z,63.33
2023-03-05T12:58:55.708Z,63.80
2023-03-05T13:01:42.456Z,63.62
2023-03-05T13:04:24.097Z,64.20
2023-03-05T13:07:16.192Z,63.99
2023-03-05T13:09:57.363Z,63.85
2023-03-05T13:12:30.183Z,64.17
2023-03-05T13:15:07.275Z,64.42
2023-03-05T13:17:52.436Z,64.62
2023-03-05T13:20:40.622Z,64.93
2023-03-05T13:23:26.595Z,65.09
2023-03-05T13:26:15.724Z,65.44
2023-03-05T13:29:03.465Z,65.54
2023-03-05T13:31:31.380Z,65.58
2023-03-05T13:34:47.161Z,66.04
2023-03-05T13:37:31.801Z,66.27
2023-03-05T13:40:01.049Z,66.07
2023-03-05T13:42:34.907Z,65.96
2023-03-05T13:45:28.805Z,65.88
2023-03-05T13:48:03.215Z,65.75
2023-03-05T13:50:40.363Z,66.02
2023-03-05T13:53:30.755Z,67.01
2023-03-05T13:56:07.779Z,66.72
2023-03-05T13:58:54.919Z,67.22
2023-03-05T14:01:32.906Z,67.37
2023-03-05T14:04:22.221Z,67.06
2023-03-05T14:07:06.939Z,67.81
2023-03-05T14:09:39.999Z,67.89
2023-03-05T14:12:44.039Z,67.91
2023-03-05T14:15:27.226Z,68.30
2023-03-05T14:18:15.649Z,68.19
2023-03-05T14:21:09.036Z,68.03
2023-03-05T14:23:37.994Z,68.43
2023-03-05T14:26:19.777Z,68.46
2023-03-05T14:29:13.056Z,68.78
2023-03-05T14:32:05.280Z,68.88
2023-03-05T14:34:42.283Z,68.56
2023-03-05T14:37:29.044Z,68.82
2023-03-05T14:40:08.537Z,68.99
2023-03-05T14:42:39.399Z,68.59
2023-03-05T14:45:17.772Z,68.53
2023-03-05T14:47:45.863Z,68.46
2023-03-05T14:50:39.173Z,68.54
2023-03-05T14:53:16.350Z,68.94
2023-03-05T14:55:44.936Z,68.36
2023-03-05T14:58:21.793Z,68.17
2023-03-05T15:00:51.201Z,68.17
2023-03-05T15:03:20.444Z,68.30
2023-03-05T15:05:51.787Z,68.35
2023-03-05T15:08:31.081Z,68.28
2023-03-05T15:10:59.370Z,68.47
2023-03-05T15:13:27.234Z,68.45
2023-03-05T15:15:54.900Z,68.30
2023-03-05T15:18:23.814Z,69.34
2023-03-05T15:20:55.020Z,69.23
2023-03-05T15:23:22.053Z,69.92
2023-03-05T15:25:49.761Z,69.33
2023-03-05T15:28:17.268Z,69.30
2023-03-05T15:30:47.328Z,69.66
2023-03-05T15:33:17.079Z,69.36
2023-03-05T15:35:44.846Z,69.16
2023-03-05T15:38:12.970Z,69.19
2023-03-05T15:40:40.481Z,69.38
2023-03-05T15:43:07.737Z,69.54
2023-03-05T15:45:34.866Z,69.70
2023-03-05T15:48:02.036Z,70.08
2023-03-05T15:50:29.208Z,70.68
2023-03-05T15:52:56.520Z,70.99
2023-03-05T15:55:24.040Z,70.99
2023-03-05T15:57:53.012Z,71.17
2023-03-05T16:00:31.131Z,71.35
2023-03-05T16:02:58.418Z,71.67
2023-03-05T16:05:26.952Z,72.16
2023-03-05T16:07:55.329Z,72.67
2023-03-05T16:10:29.120Z,72.93
2023-03-05T16:13:06.533Z,73.21
2023-03-05T16:15:35.265Z,73.32
2023-03-05T16:18:07.053Z,72.91
2023-03-05T16:20:36.478Z,72.97
2023-03-05T16:23:05.908Z,72.75
2023-03-05T16:25:33.547Z,72.61
2023-03-05T16:28:00.789Z,72.19
2023-03-05T16:30:29.608Z,72.00
2023-03-05T16:32:56.801Z,72.31
2023-03-05T16:35:24.014Z,72.86
2023-03-05T16:37:51.763Z,73.31
2023-03-05T16:40:19.517Z,73.67
2023-03-05T16:42:46.931Z,73.60
2023-03-05T16:45:14.155Z,73.76
2023-03-05T16:47:41.485Z,73.92
2023-03-05T16:50:10.706Z,75.01
2023-03-05T16:52:38.120Z,73.79
2023-03-05T16:55:06.209Z,74.10
2023-03-05T16:57:33.347Z,74.07
2023-03-05T17:00:02.591Z,73.74
2023-03-05T17:02:29.757Z,73.67
2023-03-05T17:04:57.881Z,73.70
2023-03-05T17:07:26.614Z,73.58
2023-03-05T17:09:54.357Z,74.08
2023-03-05T17:12:22.422Z,73.89
2023-03-05T17:14:49.547Z,74.23
2023-03-05T17:17:16.605Z,74.10
2023-03-05T17:19:43.899Z,74.09
2023-03-05T17:22:12.740Z,74.36
2023-03-05T17:24:42.962Z,74.08
2023-03-05T17:27:10.844Z,74.07
2023-03-05T17:29:37.883Z,74.22
2023-03-05T17:32:05.720Z,74.31
2023-03-05T17:34:36.691Z,74.72
2023-03-05T17:37:05.907Z,74.56
2023-03-05T17:39:51.214Z,74.57
2023-03-05T17:42:30.837Z,74.55
2023-03-05T17:44:59.289Z,74.33
2023-03-05T17:47:26.587Z,74.33
2023-03-05T17:49:53.654Z,74.30
2023-03-05T17:52:21.223Z,74.31
2023-03-05T17:54:50.436Z,74.03
2023-03-05T17:57:17.558Z,74.79
2023-03-05T17:59:44.789Z,74.66
2023-03-05T18:02:12.817Z,74.73
2023-03-05T18:04:41.543Z,74.11
2023-03-05T18:07:08.679Z,74.16
2023-03-05T18:09:35.812Z,74.34
2023-03-05T18:12:02.931Z,73.62
2023-03-05T18:14:29.973Z,73.69
2023-03-05T18:16:59.232Z,72.96
2023-03-05T18:19:26.876Z,72.63
2023-03-05T18:21:54.069Z,72.22
2023-03-05T18:24:21.225Z,72.10
2023-03-05T18:26:48.881Z,71.76
2023-03-05T18:29:18.538Z,71.53
2023-03-05T18:31:46.462Z,71.59
2023-03-05T18:34:13.638Z,71.40
2023-03-05T18:36:40.674Z,70.86
2023-03-05T18:39:07.793Z,71.52
2023-03-05T18:41:34.760Z,71.35
2023-03-05T18:44:01.901Z,71.49
2023-03-05T18:46:28.955Z,71.47
2023-03-05T18:48:55.997Z,71.32
2023-03-05T18:51:24.605Z,71.43
2023-03-05T18:53:54.958Z,71.39
2023-03-05T18:56:22.321Z,71.78
2023-03-05T18:58:49.996Z,71.97
2023-03-05T19:01:19.052Z,72.06
2023-03-05T19:03:48.995Z,72.19
2023-03-05T19:06:17.868Z,71.90
2023-03-05T19:08:45.806Z,71.85
2023-03-05T19:11:21.087Z,72.13
2023-03-05T19:13:50.489Z,71.68
2023-03-05T19:16:21.829Z,72.13
2023-03-05T19:19:24.616Z,72.47
2023-03-05T19:21:59.867Z,72.48
2023-03-05T19:24:30.104Z,72.83
2023-03-05T19:27:01.173Z,72.83
2023-03-05T19:29:33.151Z,72.50
2023-03-05T19:32:00.192Z,72.72
2023-03-05T19:34:27.638Z,72.93
2023-03-05T19:36:55.130Z,73.02
2023-03-05T19:39:22.332Z,73.09
2023-03-05T19:41:49.600Z,73.46
2023-03-05T19:44:16.785Z,73.56
2023-03-05T19:46:43.829Z,73.71
2023-03-05T19:49:11.059Z,73.86
2023-03-05T19:51:40.458Z,74.47
2023-03-05T19:54:07.750Z,74.98
2023-03-05T19:56:39.802Z,75.31
2023-03-05T19:59:07.713Z,75.40
2023-03-05T20:01:35.918Z,75.62
2023-03-05T20:04:05.495Z,75.47
2023-03-05T20:06:34.311Z,75.42
2023-03-05T20:09:01.320Z,75.31
2023-03-05T20:11:28.806Z,74.97
2023-03-05T20:13:56.744Z,74.66
2023-03-05T20:16:31.401Z,74.15
2023-03-05T20:18:59.727Z,73.78
2023-03-05T20:21:34.791Z,73.35
2023-03-05T20:24:09.940Z,72.94
2023-03-05T20:26:39.729Z,73.26
2023-03-05T20:29:08.026Z,72.99
2023-03-05T20:31:37.396Z,72.71
2023-03-05T20:34:11.484Z,73.28
2023-03-05T20:36:39.265Z,73.36
2023-03-05T20:39:07.138Z,73.62
2023-03-05T20:41:36.929Z,73.76
2023-03-05T20:44:04.774Z,73.63
2023-03-05T20:49:12.069Z,73.38
2023-03-05T20:51:39.380Z,73.36
2023-03-05T20:54:13.208Z,73.16
2023-03-05T20:56:40.165Z,73.33
2023-03-05T20:59:08.977Z,73.85
2023-03-05T21:01:39.402Z,73.84
2023-03-05T21:04:06.982Z,73.48
2023-03-05T21:06:36.839Z,74.18
2023-03-05T21:09:04.315Z,73.88
2023-03-05T21:11:32.217Z,73.50
2023-03-05T21:13:59.536Z,73.76
2023-03-05T21:16:28.062Z,73.51
2023-03-05T21:18:57.371Z,73.89
2023-03-05T21:21:25.188Z,74.11
2023-03-05T21:23:53.469Z,74.32
2023-03-05T21:26:21.251Z,74.80
2023-03-05T21:28:48.556Z,74.91
2023-03-05T21:31:19.844Z,74.96
2023-03-05T21:33:47.068Z,75.01
2023-03-05T21:36:18.637Z,74.84
2023-03-05T21:38:47.677Z,74.82
2023-03-05T21:41:15.492Z,74.32
2023-03-05T21:43:42.852Z,74.03
2023-03-05T21:46:11.148Z,73.55
2023-03-05T21:48:38.416Z,73.45
2023-03-05T21:52:15.262Z,73.17
2023-03-05T21:54:43.026Z,73.29
2023-03-05T21:57:11.857Z,73.46
2023-03-05T21:59:42.749Z,73.53
2023-03-05T22:02:18.791Z,73.59
2023-03-05T22:04:46.917Z,73.97
2023-03-05T22:07:16.104Z,74.33
2023-03-05T22:09:43.259Z,74.23
2023-03-05T22:12:57.181Z,74.32
2023-03-05T22:15:24.610Z,74.62
2023-03-05T22:17:51.622Z,74.63
2023-03-05T22:20:18.986Z,73.73
2023-03-05T22:22:49.212Z,73.55
2023-03-05T22:25:17.145Z,73.11
2023-03-05T22:27:45.314Z,72.92
2023-03-05T22:30:14.058Z,72.85
2023-03-05T22:32:41.115Z,73.43
2023-03-05T22:35:13.415Z,73.56
2023-03-05T22:37:41.708Z,73.93
2023-03-05T22:40:14.105Z,74.89
2023-03-05T22:42:41.751Z,75.89
2023-03-05T22:45:09.754Z,75.60
2023-03-05T22:47:36.902Z,75.35
2023-03-05T22:50:05.466Z,75.87
2023-03-05T22:52:32.718Z,76.07
2023-03-05T22:55:03.086Z,76.74
2023-03-05T22:57:30.431Z,77.13
2023-03-05T22:59:57.595Z,76.96
2023-03-05T23:02:24.770Z,77.12
2023-03-05T23:05:00.427Z,76.77
2023-03-05T23:07:31.969Z,76.42
2023-03-05T23:10:09.091Z,76.54
2023-03-05T23:12:39.135Z,76.27
2023-03-05T23:15:10.905Z,76.61
2023-03-05T23:17:38.222Z,76.67
2023-03-05T23:20:10.306Z,76.65
2023-03-05T23:22:39.680Z,77.10
2023-03-05T23:25:07.551Z,76.16
2023-03-05T23:27:34.626Z,76.09
2023-03-05T23:30:17.756Z,76.08
2023-03-05T23:33:16.633Z,75.28
2023-03-05T23:35:51.119Z,75.37
2023-03-05T23:38:18.492Z,75.51
2023-03-05T23:40:51.571Z,75.54
2023-03-05T23:43:19.580Z,75.62
2023-03-05T23:45:49.437Z,75.81
2023-03-05T23:48:17.653Z,75.80
2023-03-05T23:50:47.785Z,75.96
2023-03-05T23:53:22.082Z,76.82
2023-03-05T23:55:49.826Z,75.97
2023-03-05T23:58:19.117Z,76.05
